Time;durP1;ratioP1;P1;durP2;ratioP2;P2;SDS_P1;SDS_P2;PMS_P1;PMS_P2;Temp;Humidity;BMP_temperature;BMP_pressure;BME280_temperature;BME280_humidity;BME280_pressure;Samples;Min_cycle;Max_cycle;Signal;HPM_P1;HPM_P2
2021/04/30 00:00:28;;;;;;;1.56;1.46;;;;;;;3.32;75.58;98940.91;2014680;78;115947;-83
2021/04/30 00:03:30;;;;;;;2.13;1.51;;;;;;;3.25;75.63;98933.09;2019609;80;20308;-82
2021/04/30 00:06:32;;;;;;;1.74;1.64;;;;;;;3.20;75.29;98935.56;2014692;81;20344;-81
2021/04/30 00:09:34;;;;;;;2.69;1.61;;;;;;;3.19;75.42;98928.72;2012774;81;20353;-81
2021/04/30 00:12:36;;;;;;;2.34;2.11;;;;;;;3.14;75.51;98932.91;2013927;81;20308;-81
2021/04/30 00:15:39;;;;;;;1.86;1.60;;;;;;;3.09;75.50;98933.66;2016134;78;118739;-82
2021/04/30 00:18:42;;;;;;;1.86;1.60;;;;;;;3.04;75.72;98938.69;2016323;81;20436;-81
2021/04/30 00:21:45;;;;;;;1.79;1.69;;;;;;;3.01;75.73;98936.06;2015035;81;20312;-82
2021/04/30 00:24:47;;;;;;;2.74;1.50;;;;;;;2.97;75.68;98937.72;2014161;80;20316;-83
2021/04/30 00:27:48;;;;;;;3.39;1.41;;;;;;;2.91;75.47;98931.63;2017124;81;20320;-84
2021/04/30 00:30:52;;;;;;;1.64;1.54;;;;;;;2.87;75.58;98924.69;2016496;81;20344;-82
2021/04/30 00:33:54;;;;;;;2.22;1.59;;;;;;;2.87;76.40;98927.25;2016836;80;20309;-83
2021/04/30 00:36:56;;;;;;;1.74;1.59;;;;;;;2.87;76.76;98928.16;2014573;81;20320;-84
2021/04/30 00:39:58;;;;;;;1.84;1.63;;;;;;;2.82;76.71;98923.75;2018583;81;20332;-83
2021/04/30 00:43:06;;;;;;;1.88;1.76;;;;;;;2.79;76.57;98923.69;2016490;80;20342;-83
2021/04/30 00:46:08;;;;;;;2.13;1.50;;;;;;;2.69;76.71;98932.91;2014054;81;20330;-83
2021/04/30 00:49:12;;;;;;;1.73;1.63;;;;;;;2.64;76.66;98939.66;2014828;81;21191;-82
2021/04/30 00:52:14;;;;;;;1.73;1.63;;;;;;;2.56;76.66;98946.31;2018863;81;20345;-81
2021/04/30 00:55:18;;;;;;;1.84;1.69;;;;;;;2.49;76.71;98942.75;2014328;80;20312;-83
2021/04/30 00:58:20;;;;;;;1.52;1.42;;;;;;;2.46;77.37;98947.81;2019204;81;20385;-83
2021/04/30 01:01:22;;;;;;;2.34;1.41;;;;;;;2.43;77.58;98950.31;2016202;81;20332;-84
2021/04/30 01:04:24;;;;;;;1.86;1.52;;;;;;;2.38;77.35;98946.81;2014629;80;20526;-84
2021/04/30 01:07:26;;;;;;;1.83;1.45;;;;;;;2.33;77.04;98943.28;2015570;81;20332;-82
2021/04/30 01:10:28;;;;;;;1.61;1.50;;;;;;;2.28;77.37;98940.63;2014058;81;20328;-83
2021/04/30 01:13:30;;;;;;;2.29;1.56;;;;;;;2.29;77.48;98944.03;2020095;80;20375;-81
2021/04/30 01:16:32;;;;;;;1.58;1.48;;;;;;;2.24;77.32;98955.91;2015176;81;20502;-81
2021/04/30 01:19:34;;;;;;;1.99;1.29;;;;;;;2.17;77.67;98954.06;2014119;80;20312;-82
2021/04/30 01:22:42;;;;;;;2.26;1.39;;;;;;;2.11;77.69;98963.31;2016846;81;20324;-81
2021/04/30 01:25:47;;;;;;;1.30;1.20;;;;;;;2.05;77.59;98972.56;2016789;70;20377;-82
2021/04/30 01:28:50;;;;;;;2.22;1.25;;;;;;;2.01;77.56;98971.63;2016167;81;20166;-82
2021/04/30 01:31:52;;;;;;;3.30;1.40;;;;;;;1.98;78.18;98963.03;2010807;78;202982;-82
2021/04/30 01:34:54;;;;;;;1.33;1.23;;;;;;;2.00;78.49;98959.66;2013288;81;20502;-82
2021/04/30 01:37:57;;;;;;;1.54;1.29;;;;;;;2.02;78.70;98960.56;2017750;81;20358;-81
2021/04/30 01:41:01;;;;;;;2.83;1.77;;;;;;;2.00;79.01;98963.91;2015241;81;20312;-82
2021/04/30 01:44:08;;;;;;;2.16;2.00;;;;;;;1.96;78.84;98962.09;2015920;81;20372;-82
2021/04/30 01:47:10;;;;;;;3.04;2.20;;;;;;;1.91;78.53;98968.81;2012350;81;228122;-82
2021/04/30 01:50:13;;;;;;;2.39;2.17;;;;;;;1.86;78.44;98952.50;2015613;81;20320;-82
2021/04/30 01:53:21;;;;;;;2.03;1.92;;;;;;;1.80;78.42;98951.53;2016502;81;20350;-83
2021/04/30 01:56:23;;;;;;;2.29;2.03;;;;;;;1.75;78.12;98952.22;2014500;81;20376;-81
2021/04/30 01:59:25;;;;;;;2.49;2.29;;;;;;;1.73;77.98;98964.13;2016557;80;20308;-81
2021/04/30 02:02:27;;;;;;;3.88;1.89;;;;;;;1.69;78.29;98962.34;2009902;78;172913;-81
2021/04/30 02:05:30;;;;;;;2.61;2.41;;;;;;;1.65;78.50;98952.84;2010889;81;20330;-82
2021/04/30 02:08:33;;;;;;;2.05;1.88;;;;;;;1.62;78.57;98963.03;2009142;81;20310;-82
2021/04/30 02:11:36;;;;;;;2.50;2.30;;;;;;;1.59;78.55;98958.66;2010950;81;20392;-81
2021/04/30 02:14:38;;;;;;;2.24;2.06;;;;;;;1.57;78.36;98957.78;2010687;81;20313;-82
2021/04/30 02:17:41;;;;;;;2.25;2.05;;;;;;;1.48;78.46;98955.00;2007064;78;239197;-83
2021/04/30 02:20:43;;;;;;;2.51;2.31;;;;;;;1.38;78.74;98951.34;2009028;81;20392;-82
2021/04/30 02:23:45;;;;;;;2.64;2.44;;;;;;;1.37;78.65;98951.31;2010610;81;20351;-82
2021/04/30 02:26:48;;;;;;;2.95;2.65;;;;;;;1.35;78.46;98956.38;2012440;81;20271;-82
2021/04/30 02:29:50;;;;;;;2.13;2.03;;;;;;;1.38;78.45;98958.16;2013523;81;20321;-81
2021/04/30 02:32:55;;;;;;;2.78;2.56;;;;;;;1.34;78.41;98964.91;2014377;78;174542;-82
2021/04/30 02:36:00;;;;;;;2.46;2.26;;;;;;;1.32;78.59;98964.00;2010082;81;20337;-82
2021/04/30 02:39:04;;;;;;;3.96;2.61;;;;;;;1.30;78.78;98957.13;2012044;81;20376;-82
2021/04/30 02:42:09;;;;;;;2.08;1.88;;;;;;;1.31;79.08;98961.41;2013020;81;20326;-82
2021/04/30 02:45:14;;;;;;;1.85;1.64;;;;;;;1.29;79.11;98957.94;2009405;81;20339;-81
2021/04/30 02:48:24;;;;;;;2.05;1.88;;;;;;;1.28;79.13;98959.63;2015107;81;20359;-83
2021/04/30 02:51:26;;;;;;;2.49;2.29;;;;;;;1.27;79.37;98957.03;2013336;81;20332;-82
2021/04/30 02:54:28;;;;;;;3.05;1.84;;;;;;;1.26;79.33;98957.84;2013797;81;20332;-82
2021/04/30 02:57:32;;;;;;;3.97;2.04;;;;;;;1.26;79.14;98962.94;2015144;81;20325;-82
2021/04/30 03:00:34;;;;;;;2.22;2.04;;;;;;;1.19;79.13;98954.28;2014947;81;20403;-81
2021/04/30 03:03:36;;;;;;;2.95;2.25;;;;;;;1.16;78.94;98949.09;2015268;81;20340;-82
2021/04/30 03:06:41;;;;;;;2.51;2.34;;;;;;;1.16;79.17;98947.41;2014231;81;20362;-81
2021/04/30 03:09:43;;;;;;;2.40;2.20;;;;;;;1.13;79.05;98941.34;2012298;81;20332;-81
2021/04/30 03:12:49;;;;;;;4.15;2.00;;;;;;;1.09;78.93;98940.41;2014173;80;20349;-82
2021/04/30 03:15:51;;;;;;;3.53;2.47;;;;;;;1.04;79.08;98946.19;2011089;81;20355;-81
2021/04/30 03:18:55;;;;;;;2.08;1.89;;;;;;;0.99;79.20;98945.22;2013609;80;20354;-81
2021/04/30 03:21:58;;;;;;;2.31;1.98;;;;;;;0.94;79.15;98940.00;2012538;81;20336;-81
2021/04/30 03:25:01;;;;;;;1.99;1.89;;;;;;;0.92;79.21;98945.91;2012468;81;20421;-81
2021/04/30 03:28:03;;;;;;;2.34;2.09;;;;;;;0.89;79.29;98944.97;2014245;81;20341;-80
2021/04/30 03:31:05;;;;;;;2.51;1.85;;;;;;;0.88;79.31;98942.38;2012013;78;135669;-81
2021/04/30 03:34:08;;;;;;;2.04;1.94;;;;;;;0.86;79.22;98944.03;2013531;81;20344;-81
2021/04/30 03:37:10;;;;;;;4.47;2.28;;;;;;;0.86;79.32;98933.81;2012503;81;20402;-81
2021/04/30 03:40:13;;;;;;;2.06;1.96;;;;;;;0.85;79.45;98934.63;2013962;81;20321;-81
2021/04/30 03:43:15;;;;;;;2.13;1.70;;;;;;;0.75;79.55;98941.19;2013461;81;20332;-81
2021/04/30 03:46:17;;;;;;;1.66;1.55;;;;;;;0.71;79.80;98943.59;2008658;78;225108;-81
2021/04/30 03:49:19;;;;;;;2.84;2.11;;;;;;;0.74;80.36;98943.72;2012982;81;20754;-81
2021/04/30 03:52:21;;;;;;;3.16;2.11;;;;;;;0.72;80.11;98945.34;2012786;81;20338;-80
2021/04/30 03:55:23;;;;;;;3.04;2.55;;;;;;;0.64;79.58;98949.38;2013520;81;20357;-81
2021/04/30 03:58:25;;;;;;;2.60;2.36;;;;;;;0.59;79.54;98939.91;2013474;81;20343;-81
2021/04/30 04:01:27;;;;;;;3.24;2.26;;;;;;;0.56;79.56;98947.50;2007798;78;253215;-80
2021/04/30 04:04:29;;;;;;;3.21;2.10;;;;;;;0.54;79.32;98949.16;2007238;81;20313;-81
2021/04/30 04:07:31;;;;;;;2.29;2.19;;;;;;;0.55;79.34;98952.56;2007307;81;20423;-81
2021/04/30 04:10:33;;;;;;;2.39;2.19;;;;;;;0.54;79.89;98949.16;2007743;81;20355;-81
2021/04/30 04:13:36;;;;;;;2.11;1.96;;;;;;;0.53;80.15;98943.97;2007189;81;20353;-81
2021/04/30 04:16:38;;;;;;;2.39;2.19;;;;;;;0.52;80.41;98944.78;2007871;81;20302;-81
2021/04/30 04:19:40;;;;;;;2.38;2.17;;;;;;;0.52;80.43;98935.44;2006649;81;20360;-80
2021/04/30 04:22:43;;;;;;;2.20;2.00;;;;;;;0.51;80.79;98933.72;2006218;81;20430;-81
2021/04/30 04:25:47;;;;;;;2.90;2.29;;;;;;;0.53;80.96;98938.84;2005718;81;20305;-83
2021/04/30 04:28:49;;;;;;;3.25;2.64;;;;;;;0.50;80.92;98934.53;2007817;81;20327;-80
2021/04/30 04:31:51;;;;;;;2.51;2.31;;;;;;;0.55;80.76;98937.25;2008891;81;20320;-80
2021/04/30 04:34:53;;;;;;;5.01;3.16;;;;;;;0.63;80.78;98951.06;2007531;81;20330;-81
2021/04/30 04:37:54;;;;;;;3.40;2.90;;;;;;;0.66;80.47;98952.84;2003951;81;20442;-80
2021/04/30 04:40:56;;;;;;;3.59;3.16;;;;;;;0.65;80.64;98936.66;2003031;81;20385;-80
2021/04/30 04:43:58;;;;;;;3.99;3.49;;;;;;;0.63;81.25;98938.31;2000748;81;20443;-80
2021/04/30 04:47:00;;;;;;;3.34;3.04;;;;;;;0.72;81.67;98940.22;1999320;81;20952;-79
2021/04/30 04:50:03;;;;;;;4.09;3.69;;;;;;;0.81;82.04;98953.25;1997020;81;20442;-79
2021/04/30 04:53:05;;;;;;;4.00;3.36;;;;;;;1.03;82.35;98955.56;1996339;81;20321;-78
2021/04/30 04:56:07;;;;;;;4.28;3.34;;;;;;;1.23;82.25;98968.00;1993787;81;20314;-78
2021/04/30 04:59:09;;;;;;;6.03;3.71;;;;;;;1.29;82.13;98978.41;1996254;81;20403;-77
2021/04/30 05:02:10;;;;;;;4.46;3.86;;;;;;;1.43;82.16;98974.47;1998659;78;22211;-77
2021/04/30 05:05:14;;;;;;;3.95;3.40;;;;;;;1.59;81.96;98973.16;2000509;81;20340;-77
2021/04/30 05:08:15;;;;;;;4.26;3.16;;;;;;;1.74;82.24;98970.97;2000900;81;20843;-76
2021/04/30 05:11:17;;;;;;;4.14;3.33;;;;;;;1.87;82.26;98970.44;2000735;81;20909;-77
2021/04/30 05:14:19;;;;;;;3.72;3.33;;;;;;;1.93;82.33;98967.16;1997763;81;20358;-76
2021/04/30 05:17:40;;;;;;;4.31;3.44;;;;;;;2.04;81.99;98956.34;1995130;78;23905;-76
2021/04/30 05:20:42;;;;;;;2.96;2.72;;;;;;;2.08;81.68;98967.50;1996386;81;20543;-76
2021/04/30 05:23:44;;;;;;;4.70;3.35;;;;;;;2.06;81.69;98966.59;1995984;81;20321;-76
2021/04/30 05:26:46;;;;;;;3.58;3.25;;;;;;;2.09;81.68;98962.41;1996050;81;20820;-77
2021/04/30 05:29:47;;;;;;;4.44;3.11;;;;;;;2.10;81.77;98966.69;1999303;81;20341;-77
2021/04/30 05:32:49;;;;;;;4.35;2.80;;;;;;;2.14;81.83;98965.06;2000801;79;20820;-80
2021/04/30 05:35:51;;;;;;;3.80;3.28;;;;;;;2.19;81.87;98971.19;2001348;81;20350;-81
2021/04/30 05:38:53;;;;;;;3.81;3.22;;;;;;;2.22;82.06;98962.69;2001717;81;20718;-80
2021/04/30 05:41:55;;;;;;;3.14;2.69;;;;;;;2.27;82.12;98958.53;2003262;81;20360;-82
2021/04/30 05:44:56;;;;;;;3.28;2.97;;;;;;;2.36;82.05;98957.03;2004944;81;20320;-81
2021/04/30 05:47:58;;;;;;;4.11;3.47;;;;;;;2.49;81.83;98953.00;1998502;78;20781;-81
2021/04/30 05:51:00;;;;;;;6.14;3.19;;;;;;;2.57;81.52;98945.50;2006685;81;20335;-82
2021/04/30 05:54:02;;;;;;;3.38;2.99;;;;;;;2.63;81.57;98954.16;2007082;81;20340;-82
2021/04/30 05:57:04;;;;;;;5.35;3.39;;;;;;;2.67;81.73;98955.06;2007833;81;20325;-81
2021/04/30 06:00:09;;;;;;;3.78;2.91;;;;;;;2.70;81.75;98957.72;2010531;81;20359;-81
2021/04/30 06:03:11;;;;;;;3.61;3.31;;;;;;;2.77;82.42;98957.00;2009656;81;20321;-82
2021/04/30 06:06:13;;;;;;;5.76;3.61;;;;;;;2.90;82.71;98964.09;2009296;81;20435;-81
2021/04/30 06:09:15;;;;;;;3.63;3.33;;;;;;;3.06;82.43;98972.94;2005605;81;20374;-81
2021/04/30 06:12:16;;;;;;;5.18;3.50;;;;;;;3.20;81.86;98970.59;2004170;81;20321;-78
2021/04/30 06:15:18;;;;;;;4.66;4.13;;;;;;;3.28;81.99;98976.75;1996064;78;21318;-79
2021/04/30 06:18:20;;;;;;;4.89;4.29;;;;;;;3.42;82.38;98980.44;2001502;81;20345;-77
2021/04/30 06:21:21;;;;;;;5.82;4.76;;;;;;;3.57;82.30;98987.50;2001829;81;21095;-78
2021/04/30 06:24:24;;;;;;;7.66;4.32;;;;;;;3.67;82.08;98988.53;2001960;81;20350;-80
2021/04/30 06:27:26;;;;;;;5.89;4.53;;;;;;;3.75;81.62;99000.66;2002326;81;20494;-78
2021/04/30 06:30:27;;;;;;;9.39;4.69;;;;;;;3.82;81.47;98999.94;2000107;79;24201;-76
2021/04/30 06:33:29;;;;;;;7.88;5.64;;;;;;;3.90;81.40;99000.03;1997373;81;20378;-79
2021/04/30 06:36:32;;;;;;;11.24;6.10;;;;;;;4.00;81.33;99001.94;1996923;81;20685;-78
2021/04/30 06:39:34;;;;;;;6.65;5.81;;;;;;;4.10;81.39;98995.19;1996738;81;20326;-78
2021/04/30 06:42:36;;;;;;;8.14;5.75;;;;;;;4.17;81.14;99000.47;1996934;81;20350;-81
2021/04/30 06:45:37;;;;;;;7.16;5.71;;;;;;;4.25;80.40;99001.44;1999199;78;25367;-80
2021/04/30 06:48:42;;;;;;;8.80;6.36;;;;;;;4.31;80.17;99002.34;2003456;81;20346;-81
2021/04/30 06:51:44;;;;;;;9.60;6.84;;;;;;;4.40;79.71;98999.94;2002675;81;20855;-76
2021/04/30 06:54:45;;;;;;;12.10;6.45;;;;;;;4.53;79.55;98997.56;2003447;81;20834;-77
2021/04/30 06:58:00;;;;;;;7.21;5.78;;;;;;;4.59;78.77;98993.31;2003491;81;20420;-77
2021/04/30 07:01:03;;;;;;;8.35;5.78;;;;;;;4.64;78.15;98994.22;1999990;78;25781;-77
2021/04/30 07:04:07;;;;;;;8.52;6.13;;;;;;;4.66;77.60;98997.69;1996290;81;20317;-78
2021/04/30 07:07:09;;;;;;;7.93;6.13;;;;;;;4.73;77.50;98994.38;1997230;81;20359;-75
2021/04/30 07:10:11;;;;;;;7.11;5.78;;;;;;;4.87;77.66;98989.41;1996617;81;20333;-73
2021/04/30 07:13:13;;;;;;;8.85;6.39;;;;;;;5.07;78.06;98996.50;1997631;81;20321;-74
2021/04/30 07:16:14;;;;;;;9.05;5.96;;;;;;;5.21;77.43;98990.63;1998093;78;20849;-74
2021/04/30 07:19:16;;;;;;;6.90;5.80;;;;;;;5.31;76.63;99003.59;2000563;81;20313;-76
2021/04/30 07:22:18;;;;;;;8.48;6.31;;;;;;;5.34;76.27;98997.63;2006345;80;20353;-75
2021/04/30 07:25:19;;;;;;;8.04;7.24;;;;;;;5.37;76.17;99000.22;2001413;81;20614;-74
2021/04/30 07:28:23;;;;;;;8.43;6.46;;;;;;;5.45;76.39;98996.88;2002460;81;20346;-74
2021/04/30 07:31:25;;;;;;;8.50;6.88;;;;;;;5.56;76.47;98986.66;1998070;78;24021;-74
2021/04/30 07:34:27;;;;;;;8.88;7.05;;;;;;;5.70;75.95;98984.22;1996530;81;20878;-75
2021/04/30 07:37:29;;;;;;;14.66;8.49;;;;;;;5.80;75.65;98988.59;1998000;81;20322;-80
2021/04/30 07:40:30;;;;;;;13.34;9.34;;;;;;;5.81;74.67;99000.63;1994692;81;20809;-76
2021/04/30 07:43:33;;;;;;;19.90;9.65;;;;;;;5.84;74.05;98990.34;1995062;81;20343;-76
2021/04/30 07:46:35;;;;;;;16.92;10.02;;;;;;;5.93;73.65;98979.31;1996230;78;22738;-77
2021/04/30 07:49:38;;;;;;;13.30;8.93;;;;;;;6.02;73.61;98975.06;2001524;81;20927;-77
2021/04/30 07:52:40;;;;;;;11.74;8.75;;;;;;;6.09;72.84;98986.25;2000740;81;20487;-77
2021/04/30 07:55:42;;;;;;;12.21;8.86;;;;;;;6.20;72.06;98974.31;2001504;81;20325;-77
2021/04/30 07:58:43;;;;;;;12.75;8.64;;;;;;;6.27;71.74;98977.78;2001241;81;20469;-77
2021/04/30 08:01:45;;;;;;;12.26;8.54;;;;;;;6.25;71.72;98980.34;1996889;78;25826;-76
2021/04/30 08:04:47;;;;;;;13.89;8.21;;;;;;;6.23;70.99;98966.59;1995942;81;20371;-77
2021/04/30 08:07:49;;;;;;;21.09;9.35;;;;;;;6.28;70.66;98975.25;1995646;81;20814;-76
2021/04/30 08:10:51;;;;;;;12.13;8.32;;;;;;;6.37;70.73;98974.41;1996292;81;20720;-78
2021/04/30 08:13:55;;;;;;;11.82;8.75;;;;;;;6.43;70.72;98978.75;1996764;81;20354;-77
2021/04/30 08:16:56;;;;;;;10.70;8.24;;;;;;;6.46;70.53;98979.63;1997998;79;23091;-77
2021/04/30 08:19:59;;;;;;;10.77;8.04;;;;;;;6.55;70.93;98977.09;2002052;81;21068;-77
2021/04/30 08:23:03;;;;;;;16.42;8.05;;;;;;;6.70;70.51;98985.78;2000725;81;20340;-78
2021/04/30 08:26:04;;;;;;;11.56;8.11;;;;;;;6.75;69.78;98989.22;2004400;80;20323;-77
2021/04/30 08:29:06;;;;;;;10.71;8.24;;;;;;;6.75;68.77;98987.50;2001438;81;20966;-78
2021/04/30 08:32:08;;;;;;;14.06;8.23;;;;;;;6.78;68.64;98981.50;1995797;78;20474;-76
2021/04/30 08:35:10;;;;;;;13.36;7.85;;;;;;;6.80;68.20;98982.34;1995776;81;20314;-77
2021/04/30 08:38:12;;;;;;;11.74;8.02;;;;;;;6.88;68.59;98981.53;1995149;81;20309;-77
2021/04/30 08:41:17;;;;;;;12.80;7.65;;;;;;;7.04;68.91;98979.03;1996370;81;20359;-78
2021/04/30 08:44:19;;;;;;;11.38;7.66;;;;;;;7.11;67.88;98968.69;1995785;81;20347;-78
2021/04/30 08:47:21;;;;;;;11.63;7.81;;;;;;;7.23;67.87;98973.03;1998871;79;21528;-76
2021/04/30 08:50:23;;;;;;;11.70;7.45;;;;;;;7.38;68.01;98973.06;2000675;81;20366;-78
2021/04/30 08:53:25;;;;;;;11.63;7.74;;;;;;;7.61;67.58;98964.47;2002756;81;20258;-82
2021/04/30 08:56:26;;;;;;;11.95;7.11;;;;;;;7.84;66.63;98961.03;2011865;80;20349;-83
2021/04/30 08:59:29;;;;;;;10.26;6.84;;;;;;;8.02;65.23;98973.06;2012456;81;20324;-82
2021/04/30 09:02:32;;;;;;;11.02;6.44;;;;;;;8.08;63.70;98959.31;2006486;78;22218;-78
2021/04/30 09:05:34;;;;;;;11.66;6.99;;;;;;;8.13;63.33;98957.56;1995014;81;20222;-78
2021/04/30 09:08:48;;;;;;;9.61;6.29;;;;;;;8.32;64.54;98953.22;1996157;81;20327;-78
2021/04/30 09:11:52;;;;;;;9.49;6.69;;;;;;;8.37;62.72;98947.19;1995441;81;20190;-77
2021/04/30 09:14:55;;;;;;;6.90;6.22;;;;;;;8.42;62.21;98939.41;1996618;81;20203;-79
2021/04/30 09:18:18;;;;;;;11.31;5.72;;;;;;;8.64;62.35;98942.81;1994904;78;21348;-77
2021/04/30 09:21:19;;;;;;;9.65;6.32;;;;;;;8.84;62.57;98937.53;1996415;81;20299;-78
2021/04/30 09:24:24;;;;;;;8.70;6.28;;;;;;;9.03;62.37;98940.03;1995487;81;21099;-77
2021/04/30 09:27:41;;;;;;;6.45;5.66;;;;;;;9.12;61.26;98938.22;1995857;81;20757;-77
2021/04/30 09:30:43;;;;;;;6.90;6.20;;;;;;;9.19;60.96;98929.56;1996314;78;23928;-77
2021/04/30 09:33:45;;;;;;;7.36;5.65;;;;;;;9.24;59.87;98931.25;2001561;81;20262;-77
2021/04/30 09:37:17;;;;;;;8.57;5.80;;;;;;;9.40;59.56;98926.84;2001360;81;20201;-77
2021/04/30 09:40:26;;;;;;;9.36;5.68;;;;;;;9.66;60.09;98939.56;2001674;81;20182;-78
2021/04/30 09:43:46;;;;;;;8.10;5.20;;;;;;;9.81;58.76;98951.56;2001212;81;20666;-77
2021/04/30 09:46:47;;;;;;;6.09;5.18;;;;;;;9.90;56.16;98959.28;1997747;79;29080;-77
2021/04/30 09:49:58;;;;;;;5.75;4.82;;;;;;;9.92;55.57;98962.72;1996130;81;21013;-78
2021/04/30 09:53:06;;;;;;;6.80;4.94;;;;;;;9.98;54.79;98971.28;1996077;81;20174;-78
2021/04/30 09:56:08;;;;;;;5.14;4.41;;;;;;;10.00;54.60;98969.53;1996995;81;20668;-78
2021/04/30 09:59:10;;;;;;;6.47;4.05;;;;;;;10.03;54.77;98957.41;1996831;81;20581;-78
2021/04/30 10:02:15;;;;;;;7.44;4.26;;;;;;;10.16;53.61;98953.84;1998543;78;20902;-77
2021/04/30 10:05:21;;;;;;;5.68;3.75;;;;;;;10.17;52.82;98952.97;2003944;81;20227;-76
2021/04/30 10:08:40;;;;;;;5.35;3.71;;;;;;;10.27;52.95;98957.22;2001703;81;20194;-78
2021/04/30 10:11:42;;;;;;;4.75;3.64;;;;;;;10.48;52.91;98949.22;2001428;81;20173;-78
2021/04/30 10:14:44;;;;;;;5.93;3.75;;;;;;;10.67;51.12;98961.97;2002030;81;20219;-77
2021/04/30 10:17:47;;;;;;;5.29;3.90;;;;;;;10.71;48.97;98948.06;1995738;79;21787;-77
2021/04/30 10:20:49;;;;;;;4.79;4.14;;;;;;;10.93;49.70;98946.91;1995044;81;20178;-77
2021/04/30 10:23:51;;;;;;;6.00;4.24;;;;;;;11.30;49.59;98939.47;1996550;81;20267;-79
2021/04/30 10:26:56;;;;;;;5.39;3.99;;;;;;;11.38;49.53;98945.44;1997953;81;20186;-81
2021/04/30 10:30:22;;;;;;;4.35;3.71;;;;;;;11.65;47.44;98938.94;2002820;81;20192;-81
2021/04/30 10:33:31;;;;;;;4.46;4.04;;;;;;;11.87;48.50;98951.66;2003842;81;20190;-81
2021/04/30 10:36:41;;;;;;;5.16;3.09;;;;;;;12.16;46.81;98936.38;2005107;81;20673;-80
2021/04/30 10:39:54;;;;;;;5.03;3.36;;;;;;;12.51;46.85;98932.25;2002174;81;20187;-81
2021/04/30 10:42:58;;;;;;;6.30;3.31;;;;;;;12.66;44.83;98927.59;2002904;81;20225;-80
2021/04/30 10:46:13;;;;;;;5.72;3.59;;;;;;;13.14;45.89;98935.28;2002183;81;20655;-80
2021/04/30 10:49:20;;;;;;;4.43;3.47;;;;;;;13.70;44.85;98945.31;2000581;81;20275;-80
2021/04/30 10:52:24;;;;;;;4.82;3.15;;;;;;;13.94;44.28;98944.69;1999846;81;20811;-80
2021/04/30 10:55:38;;;;;;;3.16;2.70;;;;;;;13.80;42.41;98949.41;1999657;81;20705;-79
2021/04/30 10:58:40;;;;;;;4.85;2.91;;;;;;;13.46;42.39;98949.34;1998820;81;20186;-79
2021/04/30 11:01:49;;;;;;;5.26;3.19;;;;;;;13.50;41.47;98966.66;2004340;80;22601;-80
2021/04/30 11:05:03;;;;;;;4.68;2.88;;;;;;;13.10;40.46;98959.66;2006275;81;20186;-80
2021/04/30 11:08:05;;;;;;;2.84;2.30;;;;;;;12.97;41.80;98953.88;2003950;81;20289;-80
2021/04/30 11:11:06;;;;;;;4.04;2.66;;;;;;;13.23;42.01;98955.94;2002571;81;20181;-79
2021/04/30 11:14:17;;;;;;;4.43;2.44;;;;;;;13.40;39.79;98949.50;2001981;81;20283;-78
2021/04/30 11:17:48;;;;;;;6.69;2.49;;;;;;;13.15;39.11;98942.19;1996662;78;22753;-78
2021/04/30 11:20:59;;;;;;;3.39;2.74;;;;;;;13.12;41.28;98934.47;1996534;81;20167;-78
2021/04/30 11:24:27;;;;;;;4.14;2.86;;;;;;;13.13;41.00;98930.94;1995866;81;20194;-78
2021/04/30 11:27:31;;;;;;;4.50;2.35;;;;;;;12.98;40.45;98928.69;1996295;81;20200;-79
2021/04/30 11:30:37;;;;;;;2.21;2.01;;;;;;;13.01;40.19;98934.66;1996921;79;24019;-79
2021/04/30 11:34:19;;;;;;;3.63;2.51;;;;;;;13.08;41.21;98930.19;2002522;80;20636;-78
2021/04/30 11:37:23;;;;;;;2.59;2.42;;;;;;;13.17;41.03;98939.56;1998953;81;20305;-80
2021/04/30 11:40:27;;;;;;;3.41;3.03;;;;;;;13.15;41.18;98933.53;2002048;81;20193;-79
2021/04/30 11:43:34;;;;;;;5.78;2.80;;;;;;;12.97;40.54;98942.59;1998317;81;20225;-79
2021/04/30 11:46:40;;;;;;;3.16;2.49;;;;;;;12.79;41.12;98940.38;2000000;79;22567;-80
2021/04/30 11:49:46;;;;;;;3.20;2.69;;;;;;;12.73;42.41;98945.69;1992516;81;20226;-79
2021/04/30 11:52:50;;;;;;;2.65;2.33;;;;;;;12.66;40.93;98951.03;1994622;81;20255;-79
2021/04/30 11:55:54;;;;;;;3.30;2.44;;;;;;;12.32;40.12;98952.56;1994323;81;20170;-79
2021/04/30 11:59:17;;;;;;;3.47;2.65;;;;;;;12.21;42.62;98944.09;1997347;81;20174;-79
2021/04/30 12:02:30;;;;;;;2.61;2.19;;;;;;;12.01;40.51;98947.91;2000652;78;21922;-79
2021/04/30 12:05:37;;;;;;;5.35;2.61;;;;;;;12.13;41.98;98932.97;1998877;81;20229;-80
2021/04/30 12:08:43;;;;;;;4.50;2.63;;;;;;;12.40;41.00;98943.75;2002471;81;20193;-78
2021/04/30 12:11:50;;;;;;;5.21;2.75;;;;;;;12.54;41.70;98940.00;1996721;81;20199;-79
2021/04/30 12:15:07;;;;;;;3.04;2.64;;;;;;;12.74;41.47;98939.59;2000450;80;20497;-79
2021/04/30 12:18:09;;;;;;;2.44;2.24;;;;;;;13.01;41.46;98931.22;1995915;79;20814;-80
2021/04/30 12:21:11;;;;;;;4.35;2.54;;;;;;;13.02;39.98;98941.59;1997203;81;20159;-76
2021/04/30 12:24:13;;;;;;;4.10;2.80;;;;;;;13.00;39.47;98935.56;1996394;81;20194;-76
2021/04/30 12:27:29;;;;;;;3.35;3.00;;;;;;;13.00;39.55;98932.97;1995761;81;20178;-76
2021/04/30 12:30:32;;;;;;;3.59;2.88;;;;;;;13.05;40.70;98929.38;1994916;79;110129;-77
2021/04/30 12:33:35;;;;;;;5.97;3.29;;;;;;;13.17;41.44;98923.91;2001337;81;20769;-77
2021/04/30 12:36:38;;;;;;;4.19;2.86;;;;;;;13.28;41.75;98921.94;2000643;81;20221;-77
2021/04/30 12:39:44;;;;;;;4.19;3.10;;;;;;;13.45;41.19;98917.19;2001639;81;20173;-76
2021/04/30 12:42:46;;;;;;;7.11;3.36;;;;;;;13.59;40.32;98916.88;2001420;81;20300;-77
2021/04/30 12:45:55;;;;;;;4.66;2.91;;;;;;;13.69;40.92;98925.34;1998837;81;21086;-76
2021/04/30 12:49:08;;;;;;;3.61;2.33;;;;;;;13.89;41.10;98923.09;1996422;81;20202;-77
2021/04/30 12:52:10;;;;;;;3.86;3.06;;;;;;;14.04;39.71;98922.69;1995533;81;20198;-77
2021/04/30 12:55:29;;;;;;;5.28;2.60;;;;;;;13.98;38.55;98933.28;1995822;81;20174;-77
2021/04/30 12:58:30;;;;;;;3.83;3.00;;;;;;;13.91;39.24;98927.38;1995478;81;20194;-77
2021/04/30 13:01:32;;;;;;;5.20;3.04;;;;;;;13.55;38.07;98925.66;1999986;79;21050;-77
2021/04/30 13:04:44;;;;;;;5.49;2.42;;;;;;;13.43;39.08;98926.81;2001541;81;20199;-77
2021/04/30 13:07:47;;;;;;;2.88;2.44;;;;;;;13.44;40.72;98922.44;2001906;81;20178;-76
2021/04/30 13:11:07;;;;;;;4.46;2.86;;;;;;;13.65;40.68;98923.72;2002103;81;20580;-77
2021/04/30 13:14:12;;;;;;;2.69;2.17;;;;;;;13.73;39.44;98927.84;2001502;81;20967;-76
2021/04/30 13:17:25;;;;;;;2.99;2.56;;;;;;;13.77;39.24;98924.25;2000543;78;21073;-76
2021/04/30 13:20:31;;;;;;;5.80;2.59;;;;;;;13.86;39.72;98917.94;2002367;81;20303;-77
2021/04/30 13:23:42;;;;;;;4.32;2.63;;;;;;;13.91;38.26;98921.28;1998317;81;20207;-77
2021/04/30 13:26:57;;;;;;;3.11;2.54;;;;;;;14.09;38.85;98914.75;2001885;81;20182;-77
2021/04/30 13:29:59;;;;;;;4.24;2.46;;;;;;;14.33;39.28;98921.91;2001843;81;20596;-77
2021/04/30 13:33:12;;;;;;;3.53;2.51;;;;;;;14.54;38.74;98914.41;1996867;79;25010;-76
2021/04/30 13:36:13;;;;;;;4.71;2.84;;;;;;;14.55;38.24;98908.31;1997820;81;20972;-77
2021/04/30 13:39:25;;;;;;;5.30;2.54;;;;;;;14.45;36.09;98913.78;1997445;81;20189;-77
2021/04/30 13:42:26;;;;;;;3.30;2.89;;;;;;;14.51;38.10;98905.75;1996520;81;20191;-74
2021/04/30 13:45:28;;;;;;;3.41;2.13;;;;;;;14.62;37.78;98907.22;1995825;79;73307;-76
2021/04/30 13:48:29;;;;;;;4.47;2.56;;;;;;;14.75;37.65;98896.38;1997218;81;20178;-77
2021/04/30 13:51:31;;;;;;;3.47;2.56;;;;;;;14.75;37.64;98906.84;1996931;81;20195;-77
2021/04/30 13:54:33;;;;;;;2.66;2.46;;;;;;;14.43;36.66;98899.91;1996638;81;20171;-77
2021/04/30 13:57:34;;;;;;;4.70;2.90;;;;;;;14.38;38.11;98896.53;1996730;81;20212;-77
2021/04/30 14:00:36;;;;;;;3.69;2.70;;;;;;;14.34;38.59;98891.44;1996866;79;20474;-77
2021/04/30 14:03:38;;;;;;;6.01;3.30;;;;;;;14.42;38.69;98889.47;2001644;81;20231;-77
2021/04/30 14:06:39;;;;;;;2.96;2.60;;;;;;;14.27;37.21;98880.31;2001979;81;20625;-77
2021/04/30 14:09:42;;;;;;;3.91;3.05;;;;;;;14.36;39.31;98880.06;2005124;80;20184;-77
2021/04/30 14:12:45;;;;;;;8.40;3.40;;;;;;;14.57;39.08;98873.41;2001801;81;20203;-77
2021/04/30 14:15:47;;;;;;;3.67;3.30;;;;;;;14.65;40.01;98874.03;1999224;78;21206;-77
2021/04/30 14:18:51;;;;;;;8.24;3.63;;;;;;;14.63;39.94;98878.44;2001085;81;20274;-77
2021/04/30 14:21:53;;;;;;;4.38;3.25;;;;;;;14.78;39.86;98867.53;2003803;80;20195;-77
2021/04/30 14:24:55;;;;;;;6.01;3.29;;;;;;;15.21;40.64;98867.97;2001733;81;20655;-77
2021/04/30 14:27:56;;;;;;;5.85;3.85;;;;;;;15.37;38.61;98871.81;2001442;81;20210;-78
2021/04/30 14:30:58;;;;;;;5.16;3.45;;;;;;;15.60;39.25;98868.47;2000262;78;20414;-78
2021/04/30 14:34:00;;;;;;;4.65;3.66;;;;;;;15.46;39.35;98868.91;1996189;81;20294;-77